Time;durP1;ratioP1;P1;durP2;ratioP2;P2;SDS_P1;SDS_P2;PMS_P1;PMS_P2;Temp;Humidity;BMP_temperature;BMP_pressure;BME280_temperature;BME280_humidity;BME280_pressure;Samples;Min_cycle;Max_cycle;Signal;HPM_P1;HPM_P2
2023/01/02 00:01:22;;;;;;;18.17;5.43;;;13.80;99.90;;;;;;5045342;28;20309;-84
2023/01/02 00:03:49;;;;;;;17.70;5.10;;;14.90;99.90;;;;;;5027522;28;20318;-84
2023/01/02 00:06:17;;;;;;;20.13;5.63;;;13.70;99.90;;;;;;5024042;28;20206;-84
2023/01/02 00:08:45;;;;;;;20.53;5.03;;;13.80;99.90;;;;;;5049441;28;20217;-84
2023/01/02 00:11:12;;;;;;;20.73;5.57;;;13.90;99.90;;;;;;5033189;28;20326;-84
2023/01/02 00:13:39;;;;;;;23.80;5.83;;;13.90;99.90;;;;;;5024214;28;20222;-84
2023/01/02 00:16:08;;;;;;;17.80;5.60;;;13.90;99.90;;;;;;5022222;28;20640;-84
2023/01/02 00:18:35;;;;;;;15.63;4.60;;;13.90;99.90;;;;;;5040259;28;20193;-84
2023/01/02 00:21:03;;;;;;;17.83;5.17;;;13.90;99.90;;;;;;5034467;28;20317;-83
2023/01/02 00:23:31;;;;;;;15.60;4.70;;;13.90;99.90;;;;;;5060866;28;20263;-83
2023/01/02 00:25:59;;;;;;;20.53;5.67;;;13.90;99.90;;;;;;5062601;28;20218;-84
2023/01/02 00:28:26;;;;;;;17.13;5.50;;;13.90;99.90;;;;;;5035520;28;20452;-84
2023/01/02 00:30:53;;;;;;;20.83;5.67;;;14.00;99.90;;;;;;5031855;28;20229;-83
2023/01/02 00:33:20;;;;;;;24.87;6.53;;;14.00;99.90;;;;;;5059285;28;20206;-83
2023/01/02 00:35:47;;;;;;;17.80;5.07;;;14.00;99.90;;;;;;5037651;28;20228;-84
2023/01/02 00:38:14;;;;;;;18.23;5.30;;;14.00;99.90;;;;;;5039475;28;20216;-84
2023/01/02 00:40:42;;;;;;;19.70;5.90;;;14.00;99.90;;;;;;5058089;28;20234;-81
2023/01/02 00:43:10;;;;;;;22.90;6.37;;;14.00;99.90;;;;;;5060265;28;20205;-82
2023/01/02 00:45:37;;;;;;;19.57;5.77;;;13.90;99.90;;;;;;5033902;28;20308;-82
2023/01/02 00:48:04;;;;;;;19.50;5.87;;;14.00;99.90;;;;;;5057589;28;20213;-82
2023/01/02 00:50:31;;;;;;;15.83;4.97;;;14.00;99.90;;;;;;5051083;28;20232;-82
2023/01/02 00:52:58;;;;;;;17.63;5.13;;;14.00;99.90;;;;;;5061183;28;20228;-82
2023/01/02 00:55:25;;;;;;;19.97;5.23;;;13.90;99.90;;;;;;5057661;28;20212;-83
2023/01/02 00:57:52;;;;;;;19.07;5.50;;;13.90;99.90;;;;;;5045724;28;20208;-82
2023/01/02 01:00:20;;;;;;;15.03;4.43;;;13.90;99.90;;;;;;5059124;28;20248;-82
2023/01/02 01:02:47;;;;;;;23.50;5.97;;;14.00;99.90;;;;;;5038588;28;20213;-83
2023/01/02 01:05:14;;;;;;;22.50;5.87;;;13.90;99.90;;;;;;5056776;28;20201;-82
2023/01/02 01:07:41;;;;;;;19.47;5.57;;;13.90;99.90;;;;;;5063759;28;20273;-85
2023/01/02 01:10:08;;;;;;;18.47;5.13;;;13.90;99.90;;;;;;5050026;28;20302;-85
2023/01/02 01:12:35;;;;;;;18.40;4.73;;;13.90;99.90;;;;;;5065155;28;20280;-84
2023/01/02 01:15:02;;;;;;;17.93;4.83;;;13.80;99.90;;;;;;5056843;28;21228;-86
2023/01/02 01:17:31;;;;;;;16.50;4.20;;;13.70;99.90;;;;;;5057740;28;20193;-85
2023/01/02 01:19:58;;;;;;;16.63;5.50;;;13.60;99.90;;;;;;5056114;28;20209;-84
2023/01/02 01:22:26;;;;;;;16.57;5.07;;;13.60;99.90;;;;;;5031845;28;20612;-85
2023/01/02 01:24:53;;;;;;;17.97;5.33;;;13.50;99.90;;;;;;5047138;28;20204;-85
2023/01/02 01:27:20;;;;;;;20.70;5.50;;;13.40;99.90;;;;;;5041600;28;20216;-85
2023/01/02 01:29:46;;;;;;;23.73;6.57;;;13.40;99.90;;;;;;5037084;28;20759;-85
2023/01/02 01:32:13;;;;;;;19.90;5.70;;;13.40;99.90;;;;;;5016764;28;20209;-85
2023/01/02 01:34:42;;;;;;;19.70;5.87;;;13.30;99.90;;;;;;5041987;28;20716;-84
2023/01/02 01:37:09;;;;;;;22.70;6.47;;;13.30;99.90;;;;;;5034344;28;20655;-84
2023/01/02 01:39:36;;;;;;;24.73;6.67;;;13.30;99.90;;;;;;5039492;28;20225;-84
2023/01/02 01:42:03;;;;;;;19.23;6.37;;;13.20;99.90;;;;;;5038490;28;20205;-84
2023/01/02 01:44:48;;;;;;;18.57;5.63;;;13.20;99.90;;;;;;5034117;28;20233;-84
2023/01/02 01:47:30;;;;;;;24.87;6.60;;;13.20;99.90;;;;;;5037593;28;20219;-84
2023/01/02 01:50:04;;;;;;;22.53;6.40;;;13.10;99.90;;;;;;5042903;28;20338;-83
2023/01/02 01:52:37;;;;;;;17.47;5.87;;;13.00;99.90;;;;;;5047444;28;20220;-83
2023/01/02 01:55:09;;;;;;;15.77;4.97;;;13.00;99.90;;;;;;5046591;28;20236;-84
2023/01/02 01:57:40;;;;;;;17.13;5.90;;;13.00;99.90;;;;;;5025124;28;20217;-84
2023/01/02 02:00:09;;;;;;;23.47;6.80;;;12.90;99.90;;;;;;5019724;28;20748;-83
2023/01/02 02:02:39;;;;;;;16.40;5.00;;;13.00;99.90;;;;;;5023986;28;20215;-83
2023/01/02 02:05:11;;;;;;;16.33;5.30;;;12.90;99.90;;;;;;5038353;28;20253;-84
2023/01/02 02:07:58;;;;;;;17.07;5.47;;;12.90;99.90;;;;;;5046985;28;20188;-85
2023/01/02 02:10:25;;;;;;;14.60;5.10;;;12.90;99.90;;;;;;5068098;28;20268;-83
2023/01/02 02:12:54;;;;;;;28.13;7.03;;;12.80;99.90;;;;;;5070505;28;20212;-84
2023/01/02 02:15:27;;;;;;;20.60;5.93;;;12.90;99.90;;;;;;5057027;28;20237;-83
2023/01/02 02:18:03;;;;;;;19.20;6.23;;;12.80;99.90;;;;;;5044445;28;20216;-84
2023/01/02 02:20:42;;;;;;;24.07;6.63;;;12.80;99.90;;;;;;5040487;28;20269;-84
2023/01/02 02:23:40;;;;;;;18.60;5.83;;;12.90;99.90;;;;;;5042756;28;20270;-84
2023/01/02 02:26:53;;;;;;;19.23;5.73;;;12.90;99.90;;;;;;5044675;28;20201;-83
2023/01/02 02:29:58;;;;;;;21.07;5.80;;;13.00;99.90;;;;;;5034373;28;20206;-84
2023/01/02 02:32:37;;;;;;;20.47;5.77;;;13.00;99.90;;;;;;5025523;28;20698;-84
2023/01/02 02:35:12;;;;;;;19.63;5.43;;;13.00;99.90;;;;;;5040482;28;20220;-83
2023/01/02 02:37:48;;;;;;;21.03;5.90;;;13.00;99.90;;;;;;5043920;28;20199;-84
2023/01/02 02:40:19;;;;;;;31.70;10.07;;;13.00;99.90;;;;;;5027550;28;21052;-84
2023/01/02 02:42:55;;;;;;;20.13;5.60;;;12.90;99.90;;;;;;5045784;28;20668;-84
2023/01/02 02:45:33;;;;;;;21.10;6.03;;;13.00;99.90;;;;;;5033169;28;20583;-84
2023/01/02 02:48:06;;;;;;;22.07;6.60;;;13.00;99.90;;;;;;5040203;28;20209;-84
2023/01/02 02:50:40;;;;;;;22.47;6.13;;;13.00;99.90;;;;;;5022032;28;20247;-84
2023/01/02 02:53:13;;;;;;;17.80;6.03;;;12.90;99.90;;;;;;5041951;28;20680;-83
2023/01/02 02:55:44;;;;;;;17.00;5.53;;;12.90;99.90;;;;;;5021252;28;20279;-83
2023/01/02 02:58:13;;;;;;;20.87;5.60;;;12.90;99.90;;;;;;5039851;28;20410;-84
2023/01/02 03:00:40;;;;;;;18.60;5.40;;;12.90;99.90;;;;;;5028082;28;20225;-84
2023/01/02 03:03:17;;;;;;;23.93;6.33;;;12.90;99.90;;;;;;5038395;28;20201;-84
2023/01/02 03:05:55;;;;;;;25.50;6.83;;;12.80;99.90;;;;;;5021622;28;20202;-84
2023/01/02 03:08:28;;;;;;;25.80;6.23;;;12.80;99.90;;;;;;5040803;28;20254;-83
2023/01/02 03:10:58;;;;;;;27.93;6.63;;;12.80;99.90;;;;;;5039728;28;20221;-84
2023/01/02 03:13:33;;;;;;;24.70;6.40;;;12.90;99.90;;;;;;5031927;28;20256;-83
2023/01/02 03:16:08;;;;;;;22.33;6.63;;;12.90;99.90;;;;;;5045101;28;20974;-84
2023/01/02 03:18:41;;;;;;;20.53;5.90;;;12.90;99.90;;;;;;5037563;28;20314;-84
2023/01/02 03:21:12;;;;;;;25.07;6.27;;;14.00;99.90;;;;;;5041658;28;20225;-84
2023/01/02 03:23:43;;;;;;;22.33;5.93;;;12.90;99.90;;;;;;5049673;28;20204;-84
2023/01/02 03:26:12;;;;;;;19.37;5.90;;;12.90;99.90;;;;;;5054798;28;20201;-83
2023/01/02 03:28:42;;;;;;;20.80;5.90;;;13.00;99.90;;;;;;5059712;28;20209;-83
2023/01/02 03:31:14;;;;;;;17.43;5.67;;;13.00;99.90;;;;;;5030340;28;20226;-82
2023/01/02 03:33:46;;;;;;;24.57;6.23;;;13.00;99.90;;;;;;5052484;28;20304;-82
2023/01/02 03:36:19;;;;;;;26.23;6.27;;;13.00;99.90;;;;;;5044140;28;20233;-83
2023/01/02 03:38:52;;;;;;;20.20;5.67;;;13.00;99.90;;;;;;5047454;28;20201;-83
2023/01/02 03:41:23;;;;;;;23.77;6.57;;;13.00;99.90;;;;;;5038816;28;20226;-83
2023/01/02 03:43:53;;;;;;;19.77;4.97;;;13.00;99.90;;;;;;5045771;28;20682;-83
2023/01/02 03:46:29;;;;;;;16.27;5.37;;;12.90;99.90;;;;;;5048601;28;20212;-83
2023/01/02 03:49:05;;;;;;;23.00;5.97;;;12.90;99.90;;;;;;5033448;28;20202;-83
2023/01/02 03:51:34;;;;;;;21.97;5.63;;;12.90;99.90;;;;;;5027138;28;20718;-83
2023/01/02 03:54:02;;;;;;;19.23;6.33;;;12.20;99.90;;;;;;5034855;28;20783;-83
2023/01/02 03:56:39;;;;;;;18.10;5.57;;;12.80;99.90;;;;;;5051885;28;20808;-84
2023/01/02 03:59:13;;;;;;;22.07;5.97;;;12.80;99.90;;;;;;5026099;28;20213;-83
2023/01/02 04:01:49;;;;;;;19.80;5.37;;;12.80;99.90;;;;;;5035977;28;20196;-84
2023/01/02 04:04:22;;;;;;;23.97;6.53;;;12.80;99.90;;;;;;5039646;28;20191;-84
2023/01/02 04:06:58;;;;;;;15.90;5.60;;;12.80;99.90;;;;;;5026236;28;20216;-84
2023/01/02 04:09:28;;;;;;;19.90;5.70;;;12.80;99.90;;;;;;5031160;28;20573;-84
2023/01/02 04:12:00;;;;;;;20.40;6.23;;;12.80;99.90;;;;;;5025127;28;20283;-84
2023/01/02 04:14:32;;;;;;;17.03;5.20;;;12.70;99.90;;;;;;5026269;28;20210;-84
2023/01/02 04:17:02;;;;;;;19.40;5.90;;;12.80;99.90;;;;;;5022879;28;20206;-84
2023/01/02 04:19:35;;;;;;;25.53;6.00;;;12.70;99.90;;;;;;5015587;28;20210;-84
2023/01/02 04:22:07;;;;;;;20.83;5.93;;;12.70;99.90;;;;;;5024024;28;20213;-84
2023/01/02 04:24:40;;;;;;;19.77;5.70;;;12.70;99.90;;;;;;5039684;28;20689;-84
2023/01/02 04:27:12;;;;;;;23.03;5.70;;;12.90;99.90;;;;;;5041159;28;20205;-84
2023/01/02 04:29:39;;;;;;;19.50;5.90;;;12.80;99.90;;;;;;5021037;28;20237;-84
2023/01/02 04:32:12;;;;;;;19.27;5.40;;;12.80;99.90;;;;;;5027202;28;20240;-84
2023/01/02 04:34:42;;;;;;;19.60;5.40;;;12.70;99.90;;;;;;5045120;28;20195;-84
2023/01/02 04:37:09;;;;;;;18.30;5.23;;;12.80;99.90;;;;;;5042958;28;20571;-84
2023/01/02 04:39:38;;;;;;;17.87;5.07;;;12.80;99.90;;;;;;5016270;28;20226;-84
2023/01/02 04:42:05;;;;;;;19.70;5.80;;;12.80;99.90;;;;;;5043939;28;20212;-84
2023/01/02 04:44:32;;;;;;;20.53;5.97;;;12.80;99.90;;;;;;5017053;28;20229;-84
2023/01/02 04:47:01;;;;;;;17.97;5.43;;;12.80;99.90;;;;;;5028030;28;20204;-84
2023/01/02 04:49:28;;;;;;;16.83;4.20;;;12.90;99.90;;;;;;5016335;28;20205;-84
2023/01/02 04:52:03;;;;;;;21.37;5.00;;;12.90;99.90;;;;;;5018522;28;20250;-84
2023/01/02 04:54:30;;;;;;;13.33;4.70;;;12.90;99.90;;;;;;5044225;28;20244;-84
2023/01/02 04:56:57;;;;;;;19.30;5.70;;;12.90;99.90;;;;;;5057204;28;20208;-84
2023/01/02 04:59:24;;;;;;;16.93;5.10;;;13.00;99.90;;;;;;5062892;28;20206;-85
2023/01/02 05:01:50;;;;;;;21.73;5.73;;;12.90;99.90;;;;;;5030246;28;20301;-84
2023/01/02 05:04:17;;;;;;;16.63;5.40;;;13.00;99.90;;;;;;5041239;28;20197;-84
2023/01/02 05:06:44;;;;;;;18.73;5.07;;;13.00;99.90;;;;;;5041451;28;20197;-84
2023/01/02 05:09:14;;;;;;;23.10;5.90;;;13.00;99.90;;;;;;5029779;28;20214;-84
2023/01/02 05:11:41;;;;;;;21.20;5.27;;;13.00;99.90;;;;;;5044855;28;20212;-84
2023/01/02 05:14:08;;;;;;;19.30;5.67;;;13.10;99.90;;;;;;5016649;28;20232;-84
2023/01/02 05:16:35;;;;;;;21.03;5.30;;;13.00;99.90;;;;;;5038238;28;20229;-84
2023/01/02 05:19:02;;;;;;;20.33;5.70;;;13.10;99.90;;;;;;5012278;28;20210;-84
2023/01/02 05:24:15;;;;;;;16.93;5.30;;;13.10;99.90;;;;;;5029079;28;20205;-85
2023/01/02 05:26:42;;;;;;;20.07;5.10;;;13.10;99.90;;;;;;5048639;28;20214;-85
2023/01/02 05:29:09;;;;;;;17.23;4.97;;;13.10;99.90;;;;;;5046259;28;20205;-84
2023/01/02 05:31:36;;;;;;;17.93;4.73;;;13.20;99.90;;;;;;5019071;28;20228;-84
2023/01/02 05:34:04;;;;;;;16.67;4.87;;;13.20;99.90;;;;;;5025188;28;20209;-82
2023/01/02 05:36:31;;;;;;;16.93;4.80;;;13.20;99.90;;;;;;5024890;28;20717;-84
2023/01/02 05:38:58;;;;;;;19.70;5.90;;;13.30;99.90;;;;;;5029011;28;20205;-84
2023/01/02 05:41:26;;;;;;;15.40;4.93;;;13.20;99.90;;;;;;5030960;28;20235;-83
2023/01/02 05:43:55;;;;;;;16.97;5.30;;;13.30;99.90;;;;;;5021281;28;20281;-84
2023/01/02 05:46:21;;;;;;;19.77;5.57;;;13.30;99.90;;;;;;5035665;28;20255;-84
2023/01/02 05:48:48;;;;;;;21.50;5.63;;;13.30;99.90;;;;;;5041666;28;20789;-84
2023/01/02 05:51:17;;;;;;;15.53;4.50;;;13.30;99.90;;;;;;5035874;28;20222;-82
2023/01/02 05:53:44;;;;;;;19.97;5.63;;;13.30;99.90;;;;;;5046731;28;20217;-82
2023/01/02 05:56:13;;;;;;;18.40;5.03;;;13.30;99.90;;;;;;5047556;28;20232;-82
2023/01/02 05:58:45;;;;;;;15.37;4.73;;;13.30;99.90;;;;;;5048081;28;20186;-83
2023/01/02 06:01:17;;;;;;;19.30;4.60;;;13.30;99.90;;;;;;5032043;28;20247;-83
2023/01/02 06:03:45;;;;;;;13.77;4.07;;;13.30;99.90;;;;;;5028684;28;20312;-82
2023/01/02 06:06:13;;;;;;;13.80;4.10;;;13.30;99.90;;;;;;5053284;28;20860;-81
2023/01/02 06:08:40;;;;;;;18.40;4.80;;;13.20;99.90;;;;;;5033807;28;20240;-81
2023/01/02 06:11:09;;;;;;;15.90;4.60;;;13.20;99.90;;;;;;5045521;28;20210;-82
2023/01/02 06:13:37;;;;;;;15.30;4.97;;;13.20;99.90;;;;;;5034964;28;20209;-82
2023/01/02 06:16:08;;;;;;;19.00;5.17;;;13.20;99.90;;;;;;5025004;28;20228;-82
2023/01/02 06:18:36;;;;;;;16.60;4.87;;;13.20;99.90;;;;;;5028974;28;20213;-82
2023/01/02 06:21:06;;;;;;;18.40;5.07;;;13.20;99.90;;;;;;5024397;28;20232;-83
2023/01/02 06:23:33;;;;;;;14.13;4.63;;;13.10;99.90;;;;;;5022721;28;20201;-83
2023/01/02 06:26:03;;;;;;;16.80;5.07;;;13.10;99.90;;;;;;5021975;28;20209;-83
2023/01/02 06:28:30;;;;;;;18.37;4.90;;;13.10;99.90;;;;;;5042511;28;20308;-83
2023/01/02 06:31:00;;;;;;;23.23;5.50;;;13.00;99.90;;;;;;5018828;28;20237;-83
2023/01/02 06:33:28;;;;;;;15.90;4.43;;;13.00;99.90;;;;;;5032864;28;20255;-83
2023/01/02 06:35:59;;;;;;;19.70;4.80;;;13.00;99.90;;;;;;5050798;28;20217;-83
2023/01/02 06:38:26;;;;;;;17.80;4.73;;;13.00;99.90;;;;;;5041249;28;20198;-83
2023/01/02 06:40:54;;;;;;;20.20;5.13;;;12.90;99.90;;;;;;5044201;28;20225;-84
2023/01/02 06:43:21;;;;;;;18.67;5.30;;;12.90;99.90;;;;;;5041242;28;20869;-86
2023/01/02 06:45:48;;;;;;;17.30;4.80;;;12.90;99.90;;;;;;5017301;28;20210;-81
2023/01/02 06:48:15;;;;;;;21.20;5.23;;;12.90;99.90;;;;;;5028381;28;20268;-82
2023/01/02 06:50:44;;;;;;;15.83;4.80;;;12.90;99.90;;;;;;5053957;28;20238;-83
2023/01/02 06:53:11;;;;;;;17.60;4.43;;;12.90;99.90;;;;;;5040607;28;20228;-83
2023/01/02 06:55:38;;;;;;;16.70;4.83;;;12.80;99.90;;;;;;5020668;28;20726;-83
2023/01/02 06:58:06;;;;;;;18.03;5.10;;;12.80;99.90;;;;;;5046980;28;20359;-84
2023/01/02 07:00:33;;;;;;;16.63;4.87;;;12.80;99.90;;;;;;5029526;28;20245;-84
2023/01/02 07:03:01;;;;;;;19.10;4.43;;;12.80;99.90;;;;;;5038884;28;20754;-84
2023/01/02 07:05:28;;;;;;;15.30;4.63;;;12.80;99.90;;;;;;5068392;28;20579;-84
2023/01/02 07:07:56;;;;;;;18.43;4.77;;;12.90;99.90;;;;;;5058481;28;20217;-84
2023/01/02 07:10:23;;;;;;;14.83;4.10;;;12.80;99.90;;;;;;5053204;28;20376;-84
2023/01/02 07:12:50;;;;;;;22.27;4.90;;;12.80;99.90;;;;;;5055654;28;20208;-83
2023/01/02 07:15:17;;;;;;;16.50;4.13;;;12.80;99.90;;;;;;5033733;28;20211;-84
2023/01/02 07:17:44;;;;;;;14.73;4.80;;;12.80;99.90;;;;;;5050543;28;20225;-84
2023/01/02 07:20:12;;;;;;;14.93;4.13;;;12.80;99.90;;;;;;5069528;28;20220;-83
2023/01/02 07:22:39;;;;;;;18.90;4.77;;;12.80;99.90;;;;;;5052660;28;20203;-85
2023/01/02 07:25:08;;;;;;;21.23;4.80;;;12.80;99.90;;;;;;5046338;28;20273;-84
2023/01/02 07:27:35;;;;;;;14.67;3.60;;;12.80;99.90;;;;;;5033734;28;20202;-84
2023/01/02 07:30:02;;;;;;;21.00;4.77;;;12.80;99.90;;;;;;5033161;28;20222;-84
2023/01/02 07:32:29;;;;;;;13.80;4.27;;;12.80;99.90;;;;;;5038721;28;20194;-84
2023/01/02 07:34:56;;;;;;;13.67;4.10;;;12.80;99.90;;;;;;5053603;28;20189;-84
2023/01/02 07:37:24;;;;;;;15.80;4.60;;;12.80;99.90;;;;;;5046501;28;20228;-84
2023/01/02 07:39:51;;;;;;;14.80;4.67;;;12.80;99.90;;;;;;5048167;28;20578;-82
2023/01/02 07:42:19;;;;;;;16.10;4.93;;;12.70;99.90;;;;;;5037361;28;20212;-82
2023/01/02 07:44:46;;;;;;;14.63;4.77;;;12.70;99.90;;;;;;5041644;28;20224;-82
2023/01/02 07:47:13;;;;;;;19.03;4.93;;;12.60;99.90;;;;;;5024849;28;20820;-82
2023/01/02 07:49:40;;;;;;;13.70;4.67;;;12.70;99.90;;;;;;5030431;28;20221;-82
2023/01/02 07:52:09;;;;;;;17.93;4.90;;;12.70;99.90;;;;;;5030344;28;20215;-82
2023/01/02 07:54:37;;;;;;;17.77;5.57;;;12.70;99.90;;;;;;5029535;28;20202;-82
2023/01/02 07:57:04;;;;;;;15.80;4.63;;;12.60;99.90;;;;;;5035118;28;20225;-82
2023/01/02 07:59:32;;;;;;;22.33;5.40;;;12.60;99.90;;;;;;5049644;28;20209;-82
2023/01/02 08:01:59;;;;;;;20.73;5.27;;;12.60;99.90;;;;;;5042659;28;20192;-82
2023/01/02 08:04:26;;;;;;;15.70;4.80;;;12.60;99.90;;;;;;5023693;28;20228;-82
2023/01/02 08:06:53;;;;;;;20.37;5.90;;;12.60;99.90;;;;;;5043419;28;20227;-82
2023/01/02 08:09:20;;;;;;;21.43;5.47;;;12.60;99.90;;;;;;5023660;28;20214;-82
2023/01/02 08:11:47;;;;;;;15.73;5.10;;;12.50;99.90;;;;;;5027036;28;20209;-81
2023/01/02 08:14:14;;;;;;;21.60;5.33;;;12.60;99.90;;;;;;5031445;28;20217;-80
2023/01/02 08:16:42;;;;;;;15.47;4.43;;;12.50;99.90;;;;;;5027411;28;20224;-81
2023/01/02 08:19:10;;;;;;;13.67;4.67;;;12.60;99.90;;;;;;5052084;28;20201;-84
2023/01/02 08:21:37;;;;;;;17.27;5.27;;;12.60;99.90;;;;;;5057650;28;20265;-82
2023/01/02 08:24:06;;;;;;;13.97;4.17;;;12.60;99.90;;;;;;5072733;28;20185;-81
2023/01/02 08:26:34;;;;;;;15.17;4.60;;;12.60;99.90;;;;;;5060836;28;20212;-80
2023/01/02 08:29:06;;;;;;;12.77;4.27;;;12.60;99.90;;;;;;5045008;28;20288;-80
2023/01/02 08:31:33;;;;;;;13.13;4.53;;;12.50;99.90;;;;;;5019279;28;20221;-80
2023/01/02 08:34:01;;;;;;;17.27;5.50;;;12.60;99.90;;;;;;5042239;28;20662;-81
2023/01/02 08:36:28;;;;;;;19.03;5.00;;;12.60;99.90;;;;;;5047127;28;20213;-83
2023/01/02 08:38:55;;;;;;;19.47;5.43;;;12.60;99.90;;;;;;5033049;28;20839;-84
2023/01/02 08:41:32;;;;;;;13.70;3.80;;;11.60;99.90;;;;;;5022276;28;20308;-82
2023/01/02 08:43:59;;;;;;;16.53;4.67;;;12.30;99.90;;;;;;5030373;28;20276;-84
2023/01/02 08:46:27;;;;;;;18.47;5.53;;;11.80;99.90;;;;;;5036683;28;20226;-84
2023/01/02 08:48:54;;;;;;;19.97;6.10;;;12.20;99.90;;;;;;5016864;28;20218;-84
2023/01/02 08:51:22;;;;;;;17.70;4.80;;;12.10;99.90;;;;;;5035749;28;20599;-85
2023/01/02 08:53:49;;;;;;;12.43;3.73;;;12.00;99.90;;;;;;5050941;28;20544;-81
2023/01/02 08:56:18;;;;;;;12.00;3.23;;;12.00;99.90;;;;;;5021397;28;20240;-83
2023/01/02 08:58:49;;;;;;;14.70;3.70;;;11.80;99.90;;;;;;5042062;28;20204;-84
2023/01/02 09:01:16;;;;;;;12.10;3.37;;;11.80;99.90;;;;;;5036122;28;20240;-83
2023/01/02 09:03:44;;;;;;;12.73;3.60;;;11.70;99.90;;;;;;5018719;28;20213;-83
2023/01/02 09:06:11;;;;;;;10.93;3.27;;;11.70;99.90;;;;;;5030126;28;20289;-83
2023/01/02 09:08:39;;;;;;;11.23;3.20;;;11.70;99.90;;;;;;5042671;28;20217;-83
2023/01/02 09:11:14;;;;;;;12.80;3.63;;;11.70;99.90;;;;;;5036824;28;20841;-83
2023/01/02 09:13:42;;;;;;;12.20;3.37;;;11.70;99.90;;;;;;5038256;28;20205;-83
2023/01/02 09:16:10;;;;;;;13.17;3.70;;;11.70;99.90;;;;;;5044396;28;20293;-83
2023/01/02 09:18:38;;;;;;;13.50;3.43;;;11.70;99.90;;;;;;5035396;28;20226;-83
2023/01/02 09:21:07;;;;;;;13.10;3.87;;;11.70;99.90;;;;;;5046153;28;20221;-83
2023/01/02 09:23:35;;;;;;;12.00;3.50;;;11.70;99.90;;;;;;5046327;28;20217;-83
2023/01/02 09:26:06;;;;;;;12.73;3.83;;;11.70;99.90;;;;;;5048178;28;20864;-83
2023/01/02 09:28:35;;;;;;;12.97;3.87;;;11.80;99.90;;;;;;5016262;28;20205;-83
2023/01/02 09:31:05;;;;;;;22.30;6.27;;;11.80;99.90;;;;;;5038221;28;20408;-83
2023/01/02 09:33:31;;;;;;;13.30;3.87;;;11.80;99.90;;;;;;5012456;28;20210;-83
2023/01/02 09:36:01;;;;;;;10.97;3.50;;;11.80;99.90;;;;;;5022711;28;20205;-82
2023/01/02 09:38:28;;;;;;;13.83;4.17;;;11.80;99.90;;;;;;5041376;28;20221;-83
2023/01/02 09:40:57;;;;;;;13.30;4.23;;;11.80;99.90;;;;;;5044069;28;20229;-82
2023/01/02 09:43:32;;;;;;;13.57;4.43;;;11.80;99.90;;;;;;5035065;28;20206;-83
2023/01/02 09:46:02;;;;;;;14.87;5.47;;;11.80;99.90;;;;;;5034914;28;20315;-82
2023/01/02 09:48:33;;;;;;;13.03;4.23;;;11.80;99.90;;;;;;5014314;28;20324;-82
2023/01/02 09:51:02;;;;;;;15.60;5.47;;;11.80;99.90;;;;;;5023948;28;20225;-82
2023/01/02 09:53:29;;;;;;;16.17;5.33;;;11.80;99.90;;;;;;5036896;28;20205;-82
2023/01/02 09:56:02;;;;;;;13.67;4.93;;;11.80;99.90;;;;;;5043940;28;20198;-81
2023/01/02 09:58:37;;;;;;;29.83;6.13;;;11.70;99.90;;;;;;5038616;28;20289;-83
2023/01/02 10:01:09;;;;;;;14.50;5.10;;;12.70;99.90;;;;;;5044846;28;20220;-81
2023/01/02 10:03:45;;;;;;;13.43;5.23;;;11.70;99.90;;;;;;5040121;28;20194;-80
2023/01/02 10:06:16;;;;;;;17.00;5.87;;;11.70;99.90;;;;;;5038627;28;20235;-83
2023/01/02 10:08:52;;;;;;;13.83;5.33;;;11.60;99.90;;;;;;5036179;28;20276;-82
2023/01/02 10:11:32;;;;;;;15.63;6.37;;;11.60;99.90;;;;;;5032319;28;20251;-83
2023/01/02 10:14:01;;;;;;;18.07;6.63;;;11.60;99.90;;;;;;5033903;28;20202;-82
2023/01/02 10:16:32;;;;;;;14.10;5.33;;;12.40;99.90;;;;;;5028754;28;20209;-83
2023/01/02 10:19:03;;;;;;;12.77;4.93;;;11.60;99.90;;;;;;5040834;28;20607;-82
2023/01/02 10:21:34;;;;;;;16.27;7.00;;;11.60;99.90;;;;;;5033028;28;20897;-82
2023/01/02 10:24:05;;;;;;;15.57;6.60;;;11.70;99.90;;;;;;5035084;28;20198;-80
2023/01/02 10:26:36;;;;;;;12.67;5.10;;;11.60;99.90;;;;;;5038823;28;20409;-80
2023/01/02 10:29:11;;;;;;;16.27;6.27;;;11.60;99.90;;;;;;5041935;28;20280;-81
2023/01/02 10:31:43;;;;;;;15.47;7.70;;;11.60;99.90;;;;;;5039483;28;20217;-81
2023/01/02 10:34:16;;;;;;;17.13;7.87;;;11.70;99.90;;;;;;5036399;28;20272;-81
2023/01/02 10:36:45;;;;;;;18.57;9.83;;;11.70;99.90;;;;;;5040166;28;20284;-81
2023/01/02 10:39:16;;;;;;;18.07;9.00;;;11.80;99.90;;;;;;5040120;28;20220;-81
2023/01/02 10:41:55;;;;;;;22.63;10.03;;;11.90;99.90;;;;;;5037911;28;20304;-81
2023/01/02 10:44:41;;;;;;;23.80;10.90;;;12.00;99.90;;;;;;5036821;28;20596;-80
2023/01/02 10:47:19;;;;;;;23.57;11.37;;;12.00;99.90;;;;;;5040055;28;20242;-81
2023/01/02 10:49:48;;;;;;;16.03;7.93;;;12.10;99.90;;;;;;5050456;28;20225;-80
2023/01/02 10:52:22;;;;;;;13.67;6.10;;;12.10;99.90;;;;;;5035049;28;20209;-80
2023/01/02 10:54:52;;;;;;;14.00;5.83;;;12.20;99.90;;;;;;5042058;28;20233;-81
2023/01/02 10:57:36;;;;;;;21.00;8.77;;;12.30;99.90;;;;;;5021500;28;20224;-81
2023/01/02 11:00:08;;;;;;;11.63;5.83;;;12.40;99.90;;;;;;5050130;28;20244;-85
2023/01/02 11:02:41;;;;;;;16.67;7.10;;;12.40;99.90;;;;;;5036262;28;20217;-82
2023/01/02 11:05:21;;;;;;;20.57;9.97;;;12.50;99.90;;;;;;5020889;28;20241;-81
2023/01/02 11:07:55;;;;;;;19.53;9.13;;;12.50;99.90;;;;;;5024141;28;20254;-81
2023/01/02 11:10:28;;;;;;;17.50;8.53;;;12.50;99.90;;;;;;5038306;28;20265;-82
2023/01/02 11:13:11;;;;;;;16.43;9.27;;;12.50;99.90;;;;;;5041613;28;20300;-82
2023/01/02 11:15:51;;;;;;;17.13;9.00;;;12.50;99.90;;;;;;5019594;28;20292;-82
2023/01/02 11:18:44;;;;;;;18.47;10.10;;;12.50;99.90;;;;;;5038577;28;20244;-83
2023/01/02 11:21:12;;;;;;;19.93;9.97;;;12.50;99.90;;;;;;5019462;28;20257;-81
2023/01/02 11:23:47;;;;;;;20.63;10.67;;;12.40;99.90;;;;;;5047628;28;20197;-82
2023/01/02 11:26:22;;;;;;;22.60;10.07;;;12.40;99.90;;;;;;5041066;28;20901;-82
2023/01/02 11:28:51;;;;;;;19.10;9.87;;;12.40;99.90;;;;;;5036416;28;20304;-82
2023/01/02 11:31:23;;;;;;;19.63;8.87;;;12.50;99.90;;;;;;5042035;28;20225;-82
2023/01/02 11:34:07;;;;;;;18.80;8.17;;;12.50;99.90;;;;;;5040862;28;20214;-83
2023/01/02 11:36:34;;;;;;;18.80;9.00;;;12.50;99.90;;;;;;5034907;28;20259;-82
2023/01/02 11:39:20;;;;;;;17.33;8.93;;;12.60;99.90;;;;;;5044889;28;20239;-81
2023/01/02 11:44:50;;;;;;;19.27;8.83;;;12.80;99.90;;;;;;5038639;28;20205;-82
2023/01/02 11:47:30;;;;;;;20.47;9.97;;;12.70;99.90;;;;;;5040510;28;20201;-82
2023/01/02 11:49:58;;;;;;;19.47;8.80;;;12.90;99.90;;;;;;5028682;28;20243;-82
2023/01/02 11:52:34;;;;;;;19.67;8.93;;;12.90;99.90;;;;;;5050379;28;20208;-82
2023/01/02 11:55:12;;;;;;;20.57;8.77;;;13.00;99.90;;;;;;5029589;28;20307;-82
2023/01/02 11:57:46;;;;;;;19.53;8.47;;;13.10;99.90;;;;;;5036872;28;20335;-82
2023/01/02 12:00:16;;;;;;;19.00;8.90;;;13.10;99.90;;;;;;5038264;28;20708;-82
2023/01/02 12:02:48;;;;;;;15.40;6.93;;;13.20;99.90;;;;;;5037341;28;20206;-82
2023/01/02 12:05:19;;;;;;;21.23;9.20;;;13.10;99.90;;;;;;5044131;28;20202;-82
2023/01/02 12:07:49;;;;;;;20.57;8.70;;;13.00;99.90;;;;;;5040348;28;20202;-82
2023/01/02 12:10:33;;;;;;;16.60;7.43;;;13.00;99.90;;;;;;5041816;28;20244;-82
2023/01/02 12:13:18;;;;;;;12.80;5.87;;;12.90;99.90;;;;;;5039094;28;20586;-82
2023/01/02 12:16:10;;;;;;;13.87;5.33;;;12.80;99.90;;;;;;5043461;28;20937;-82
2023/01/02 12:19:02;;;;;;;18.73;6.57;;;12.70;99.90;;;;;;5037654;28;20210;-82
2023/01/02 12:21:36;;;;;;;14.07;6.50;;;12.60;99.90;;;;;;5038094;28;20230;-82
2023/01/02 12:24:28;;;;;;;16.90;7.77;;;12.60;99.90;;;;;;5040770;28;20205;-82
2023/01/02 12:27:02;;;;;;;14.87;6.63;;;12.60;99.90;;;;;;5038679;28;20216;-82
2023/01/02 12:29:45;;;;;;;19.40;8.50;;;12.50;99.90;;;;;;5043710;28;20635;-82
2023/01/02 12:32:44;;;;;;;16.03;6.53;;;12.50;99.90;;;;;;5027067;28;20228;-81
2023/01/02 12:35:34;;;;;;;20.30;8.10;;;12.50;99.90;;;;;;5030303;28;20220;-82
2023/01/02 12:38:05;;;;;;;18.70;8.47;;;12.40;99.90;;;;;;5041973;28;20225;-82
2023/01/02 12:40:43;;;;;;;15.40;6.57;;;12.40;99.90;;;;;;5040015;28;20222;-82
2023/01/02 12:43:36;;;;;;;16.97;6.80;;;12.40;99.90;;;;;;5043286;28;20209;-82
2023/01/02 12:46:14;;;;;;;19.10;8.23;;;12.40;99.90;;;;;;5042285;28;20216;-82
2023/01/02 12:49:02;;;;;;;18.80;8.30;;;12.40;99.90;;;;;;5031424;28;20212;-82
2023/01/02 12:51:38;;;;;;;18.53;7.60;;;13.00;99.90;;;;;;5041073;28;20217;-81
2023/01/02 12:54:20;;;;;;;16.70;6.97;;;12.40;99.90;;;;;;5039144;28;20632;-82
2023/01/02 12:56:57;;;;;;;20.90;8.40;;;12.30;99.90;;;;;;5034579;28;20225;-81
2023/01/02 12:59:56;;;;;;;19.00;7.27;;;12.30;99.90;;;;;;5040441;28;20229;-82
2023/01/02 13:02:40;;;;;;;15.17;6.47;;;12.30;99.90;;;;;;5014787;28;20210;-81